Time;durP1;ratioP1;P1;durP2;ratioP2;P2;SDS_P1;SDS_P2;PMS_P1;PMS_P2;Temp;Humidity;BMP_temperature;BMP_pressure;BME280_temperature;BME280_humidity;BME280_pressure;Samples;Min_cycle;Max_cycle;Signal;HPM_P1;HPM_P2
2022/10/03 00:19:58;;;;;;;4.60;3.00;;;;;;;9.51;86.84;98312.65;430881;1276;109591;-40
2022/10/03 00:30:13;;;;;;;18.60;4.20;;;;;;;9.61;86.98;98308.31;430641;1276;109508;-41
2022/10/03 00:41:01;;;;;;;11.60;4.30;;;;;;;9.66;87.29;98302.89;430718;1276;96121;-40
2022/10/03 00:51:24;;;;;;;7.80;3.70;;;;;;;9.69;87.30;98299.03;430690;1276;108860;-41
2022/10/03 01:01:33;;;;;;;8.20;3.30;;;;;;;9.69;87.33;98294.06;430832;1276;96173;-40
2022/10/03 01:22:04;;;;;;;10.90;2.80;;;;;;;9.66;87.20;98290.48;430816;1276;108506;-39
2022/10/03 01:32:12;;;;;;;8.30;3.40;;;;;;;9.65;87.33;98286.11;430689;1276;96346;-39
2022/10/03 01:42:29;;;;;;;6.80;2.40;;;;;;;9.53;87.26;98284.66;432471;1270;108657;-39
2022/10/03 02:02:42;;;;;;;8.30;3.90;;;;;;;9.55;87.77;98291.04;432389;1273;109668;-40
2022/10/03 02:12:53;;;;;;;12.00;4.20;;;;;;;9.65;88.03;98295.58;432985;1271;109214;-40
2022/10/03 02:23:01;;;;;;;9.60;3.50;;;;;;;9.73;88.25;98294.09;432361;1271;96173;-40
2022/10/03 02:33:43;;;;;;;14.90;3.80;;;;;;;9.78;88.39;98296.55;432155;1271;108943;-39
2022/10/03 02:44:16;;;;;;;9.10;2.40;;;;;;;9.84;88.20;98297.03;432517;1270;95737;-39
2022/10/03 02:55:04;;;;;;;7.60;2.80;;;;;;;9.88;88.14;98295.41;432389;1271;109803;-39
2022/10/03 03:05:42;;;;;;;9.20;2.50;;;;;;;9.91;88.21;98293.06;432823;1269;108739;-39
2022/10/03 03:16:13;;;;;;;9.40;2.80;;;;;;;9.93;88.31;98287.48;432587;1270;96147;-40
2022/10/03 03:26:40;;;;;;;15.90;4.90;;;;;;;9.92;88.44;98280.13;432540;1271;109734;-40
2022/10/03 03:36:45;;;;;;;9.20;3.70;;;;;;;9.93;88.60;98282.15;432454;1270;108911;-40
2022/10/03 03:46:56;;;;;;;6.90;2.60;;;;;;;9.92;88.63;98278.96;432266;1270;96303;-40
2022/10/03 03:57:14;;;;;;;13.10;4.50;;;;;;;9.93;88.87;98273.90;432358;1270;108799;-40
2022/10/03 04:07:30;;;;;;;9.10;2.70;;;;;;;9.95;88.72;98276.77;432201;1270;96122;-39
2022/10/03 04:28:31;;;;;;;15.70;6.70;;;;;;;9.84;88.69;98282.04;432288;1271;108826;-38
2022/10/03 04:59:03;;;;;;;9.30;2.60;;;;;;;9.65;88.62;98285.70;432336;1270;95481;-41
2022/10/03 05:09:13;;;;;;;12.10;2.60;;;;;;;9.66;88.75;98276.64;432592;1270;109799;-40
2022/10/03 05:19:54;;;;;;;9.50;2.50;;;;;;;9.69;88.75;98278.48;432483;1270;108372;-40
2022/10/03 05:30:03;;;;;;;13.60;3.20;;;;;;;9.74;88.82;98282.70;431851;1271;96141;-40
2022/10/03 05:40:07;;;;;;;10.20;2.80;;;;;;;9.79;88.55;98290.81;432049;1270;106724;-40
2022/10/03 06:00:52;;;;;;;8.70;2.40;;;;;;;9.85;88.37;98299.81;432503;1270;110253;-41
2022/10/03 06:11:01;;;;;;;6.80;1.90;;;;;;;9.83;88.12;98304.83;432422;1270;108971;-40
2022/10/03 06:21:17;;;;;;;;;;;;;;;9.65;88.45;98315.22;432587;1270;96141;-40
2022/10/03 06:31:55;;;;;;;10.40;2.10;;;;;;;9.57;88.58;98318.37;432668;1270;108837;-39
2022/10/03 06:52:55;;;;;;;15.20;3.00;;;;;;;9.78;88.75;98329.66;432582;1270;110714;-40
2022/10/03 07:03:38;;;;;;;4.90;1.50;;;;;;;9.96;88.66;98332.85;432406;1270;108827;-39
2022/10/03 07:24:26;;;;;;;4.20;1.20;;;;;;;9.90;88.78;98347.06;432205;1270;108223;-40
2022/10/03 07:34:58;;;;;;;7.10;1.70;;;;;;;9.90;89.01;98356.04;432664;1269;97081;-40
2022/10/03 07:45:42;;;;;;;6.40;2.10;;;;;;;9.92;89.19;98364.85;432449;1270;109899;-40
2022/10/03 08:16:29;;;;;;;2.80;1.20;;;;;;;11.42;89.42;98336.84;432564;1271;108837;-39
2022/10/03 08:26:58;;;;;;;8.10;1.80;;;;;;;11.67;88.31;98333.89;432559;1271;96176;-40
2022/10/03 08:37:21;;;;;;;8.00;1.80;;;;;;;11.45;87.76;98341.35;432375;1269;96924;-39
2022/10/03 08:47:49;;;;;;;4.70;2.10;;;;;;;11.09;87.47;98344.97;432348;1271;108882;-41
2022/10/03 08:58:13;;;;;;;8.40;2.20;;;;;;;10.89;87.55;98351.77;432343;1271;96173;-41
2022/10/03 09:08:51;;;;;;;6.80;2.40;;;;;;;10.74;87.55;98354.78;432727;1271;109739;-41
2022/10/03 09:19:17;;;;;;;10.20;4.80;;;;;;;10.66;87.49;98356.92;432266;1271;109031;-40
2022/10/03 09:29:49;;;;;;;6.30;1.70;;;;;;;10.67;87.41;98359.42;432275;1270;96208;-39
2022/10/03 09:40:37;;;;;;;2.90;1.70;;;;;;;10.73;87.36;98371.02;432468;1271;108658;-39
2022/10/03 09:51:02;;;;;;;5.10;1.80;;;;;;;10.75;87.07;98376.33;432552;1271;95675;-39
2022/10/03 10:11:29;;;;;;;3.70;1.50;;;;;;;10.95;87.35;98387.96;432297;1271;109078;-40
2022/10/03 10:22:15;;;;;;;5.70;2.00;;;;;;;10.96;87.30;98386.77;432174;1271;96138;-40
2022/10/03 10:32:52;;;;;;;6.30;1.60;;;;;;;10.90;87.29;98390.41;432373;1271;108888;-40
2022/10/03 10:43:33;;;;;;;4.20;1.90;;;;;;;10.85;87.27;98396.64;432762;1270;96164;-40
2022/10/03 10:54:12;;;;;;;9.90;2.50;;;;;;;10.84;87.29;98400.98;432546;1269;109751;-40
2022/10/03 11:04:52;;;;;;;3.20;1.80;;;;;;;10.94;87.33;98400.27;432428;1270;108865;-40
2022/10/03 11:15:46;;;;;;;7.60;2.00;;;;;;;11.48;87.28;98394.30;432697;1271;96362;-41
2022/10/03 11:37:08;;;;;;;5.00;1.80;;;;;;;12.78;85.39;98414.34;432145;1271;108805;-40
2022/10/03 11:47:40;;;;;;;5.60;2.10;;;;;;;12.56;84.40;98421.79;432170;1270;96189;-41
2022/10/03 11:57:45;;;;;;;11.30;5.30;;;;;;;12.74;84.11;98423.96;432505;1270;109957;-40
2022/10/03 12:28:26;;;;;;;5.70;2.50;;;;;;;13.01;82.80;98433.59;432471;1270;97201;-39
2022/10/03 12:38:36;;;;;;;4.00;1.70;;;;;;;13.06;82.00;98434.88;432339;1270;108578;-40
2022/10/03 12:48:46;;;;;;;6.70;2.50;;;;;;;13.22;81.68;98440.58;432337;1271;96193;-39
2022/10/03 12:59:13;;;;;;;4.90;3.10;;;;;;;13.33;81.20;98443.83;432672;1271;109858;-40
2022/10/03 13:09:31;;;;;;;6.90;3.00;;;;;;;13.29;80.63;98442.88;432474;1270;108268;-40
2022/10/03 13:40:02;;;;;;;7.10;3.00;;;;;;;13.61;78.87;98474.94;432366;1270;109309;-41
2022/10/03 13:50:15;;;;;;;4.40;3.20;;;;;;;13.23;78.42;98476.16;432351;1270;108874;-39
2022/10/03 14:00:25;;;;;;;4.60;2.80;;;;;;;13.08;78.21;98486.81;432497;1271;108774;-40
2022/10/03 14:10:49;;;;;;;6.10;2.40;;;;;;;13.03;78.48;98498.59;432198;1271;96569;-40
2022/10/03 14:21:31;;;;;;;4.00;3.00;;;;;;;12.67;78.52;98495.77;432766;1271;109948;-38
2022/10/03 14:31:45;;;;;;;10.10;3.90;;;;;;;12.45;78.82;98498.61;432008;1271;109003;-39
2022/10/03 14:42:12;;;;;;;9.70;4.00;;;;;;;12.67;79.05;98508.61;432470;1271;96144;-40
2022/10/03 15:02:29;;;;;;;19.60;9.20;;;;;;;12.69;78.70;98523.97;433393;1268;109130;-40
2022/10/03 15:12:41;;;;;;;7.30;3.20;;;;;;;12.46;78.65;98522.44;433339;1268;109026;-39
2022/10/03 15:22:54;;;;;;;8.80;3.00;;;;;;;12.26;79.02;98539.17;432994;1269;96125;-40
2022/10/03 15:33:06;;;;;;;6.10;4.40;;;;;;;12.11;79.06;98547.49;433489;1268;107276;-40
2022/10/03 16:03:47;;;;;;;10.30;6.10;;;;;;;11.71;78.57;98569.20;433002;1268;108716;-41
2022/10/03 16:24:07;;;;;;;9.00;4.60;;;;;;;11.49;79.12;98594.65;433236;1268;97546;-41
2022/10/03 16:34:13;;;;;;;8.60;4.10;;;;;;;11.25;79.54;98604.96;433331;1268;111115;-40
2022/10/03 16:44:23;;;;;;;13.40;6.60;;;;;;;10.95;80.24;98593.45;433203;1268;108285;-40
2022/10/03 16:54:32;;;;;;;12.80;7.60;;;;;;;10.65;80.51;98603.55;433636;1268;97926;-40
2022/10/03 17:04:42;;;;;;;9.80;5.40;;;;;;;10.42;80.96;98607.09;433664;1268;108953;-40
2022/10/03 17:14:52;;;;;;;12.70;8.00;;;;;;;10.36;81.48;98602.88;433479;1268;97496;-39
2022/10/03 17:35:22;;;;;;;22.00;6.90;;;;;;;10.24;82.49;98603.34;433138;1268;108747;-43
2022/10/03 17:45:39;;;;;;;11.80;5.60;;;;;;;10.16;82.96;98616.70;433513;1268;97383;-39
2022/10/03 17:55:48;;;;;;;9.50;5.60;;;;;;;10.09;83.40;98630.67;433735;1268;107675;-41
2022/10/03 18:06:03;;;;;;;13.70;6.10;;;;;;;10.10;83.70;98638.69;433632;1268;97930;-41
2022/10/03 18:16:20;;;;;;;9.80;5.10;;;;;;;10.20;84.03;98641.76;433930;1267;111205;-40
2022/10/03 18:26:28;;;;;;;14.40;5.30;;;;;;;10.28;84.44;98642.23;433439;1268;108698;-42
2022/10/03 18:36:33;;;;;;;13.30;5.60;;;;;;;10.31;84.68;98645.90;433619;1268;96683;-39
2022/10/03 18:46:41;;;;;;;15.00;6.90;;;;;;;10.31;84.94;98647.53;433554;1268;109661;-40
2022/10/03 18:57:01;;;;;;;14.20;4.70;;;;;;;10.32;85.03;98658.44;433727;1268;96621;-39
2022/10/03 19:07:11;;;;;;;11.10;4.80;;;;;;;10.32;85.11;98660.65;433893;1268;111305;-40
2022/10/03 19:17:24;;;;;;;14.10;4.90;;;;;;;10.32;85.37;98662.35;433537;1268;108805;-39
2022/10/03 19:27:39;;;;;;;16.30;5.10;;;;;;;10.35;85.67;98669.89;432987;1268;97881;-41
2022/10/03 19:37:50;;;;;;;13.30;5.50;;;;;;;10.39;85.89;98675.02;433203;1268;109239;-39
2022/10/03 19:48:01;;;;;;;8.90;4.50;;;;;;;10.44;86.14;98675.55;433818;1267;96605;-39
2022/10/03 19:58:17;;;;;;;11.70;4.50;;;;;;;10.45;86.29;98668.78;433888;1268;111124;-39
2022/10/03 20:08:29;;;;;;;5.10;3.10;;;;;;;10.48;86.43;98666.45;432949;1268;108708;-39
2022/10/03 20:18:37;;;;;;;10.10;4.00;;;;;;;10.48;86.46;98664.06;433265;1268;97527;-40
2022/10/03 20:29:05;;;;;;;16.50;3.80;;;;;;;10.50;86.48;98665.01;433388;1268;109059;-41
2022/10/03 20:39:11;;;;;;;11.20;4.50;;;;;;;10.48;86.50;98664.66;433409;1268;97903;-40
2022/10/03 20:49:22;;;;;;;8.00;3.70;;;;;;;10.40;86.48;98653.68;433763;1267;110235;-40
2022/10/03 20:59:29;;;;;;;10.60;4.40;;;;;;;10.35;86.62;98658.20;433290;1268;109060;-41
2022/10/03 21:29:53;;;;;;;9.80;3.80;;;;;;;10.31;87.04;98667.25;433361;1269;98177;-41
2022/10/03 21:40:06;;;;;;;5.40;3.10;;;;;;;10.33;87.14;98673.80;433035;1270;111169;-40
2022/10/03 22:10:39;;;;;;;8.80;3.20;;;;;;;10.31;87.10;98671.30;433144;1268;108707;-41
2022/10/03 22:20:47;;;;;;;17.20;3.60;;;;;;;10.30;87.20;98671.77;433688;1268;314847;-40
2022/10/03 22:30:53;;;;;;;12.50;3.90;;;;;;;10.27;87.12;98670.70;433727;1268;110023;-40
2022/10/03 22:41:04;;;;;;;13.70;4.10;;;;;;;10.25;87.31;98670.64;433370;1268;108808;-41
2022/10/03 22:51:15;;;;;;;12.20;4.00;;;;;;;10.23;87.36;98660.46;433676;1268;97974;-41
2022/10/03 23:01:21;;;;;;;9.70;4.10;;;;;;;10.25;87.36;98657.42;433101;1268;108918;-41
2022/10/03 23:11:30;;;;;;;7.70;3.90;;;;;;;10.22;87.34;98648.70;433301;1268;97890;-41
2022/10/03 23:21:43;;;;;;;;;;;;;;;10.21;87.24;98647.55;433126;1268;109644;-41
2022/10/03 23:31:49;;;;;;;7.30;5.10;;;;;;;10.21;87.50;98648.30;433539;1268;108784;-41
2022/10/03 23:41:59;;;;;;;11.40;3.40;;;;;;;10.22;87.48;98647.52;433730;1268;96609;-40
2022/10/03 23:52:10;;;;;;;13.60;4.50;;;;;;;10.17;87.38;98646.94;433405;1268;108753;-41
